Time;durP1;ratioP1;P1;durP2;ratioP2;P2;SDS_P1;SDS_P2;PMS_P1;PMS_P2;Temp;Humidity;BMP_temperature;BMP_pressure;BME280_temperature;BME280_humidity;BME280_pressure;Samples;Min_cycle;Max_cycle;Signal;HPM_P1;HPM_P2
2021/04/10 00:00:48;;;;;;;31.42;13.27;;;8.10;57.80;;;;;;5075852;28;20436;-71
2021/04/10 00:03:15;;;;;;;24.75;11.50;;;8.10;57.30;;;;;;5057397;28;20063;-71
2021/04/10 00:05:41;;;;;;;25.48;12.98;;;8.00;57.50;;;;;;5075348;28;20034;-70
2021/04/10 00:08:07;;;;;;;24.33;10.52;;;7.90;57.60;;;;;;5076020;28;20029;-71
2021/04/10 00:10:33;;;;;;;20.92;10.50;;;7.90;57.70;;;;;;5075474;28;20024;-70
2021/04/10 00:13:00;;;;;;;25.25;10.95;;;7.80;57.80;;;;;;5075436;28;20036;-71
2021/04/10 00:15:28;;;;;;;19.98;10.55;;;7.80;58.50;;;;;;5057472;28;20028;-71
2021/04/10 00:17:55;;;;;;;24.80;11.02;;;7.80;57.80;;;;;;5057434;28;20024;-72
2021/04/10 00:20:22;;;;;;;24.75;11.38;;;7.80;58.60;;;;;;5057556;28;20024;-72
2021/04/10 00:22:48;;;;;;;28.23;13.02;;;7.80;58.40;;;;;;5075255;28;20024;-72
2021/04/10 00:25:16;;;;;;;22.00;10.55;;;7.70;59.30;;;;;;5075158;28;20024;-72
2021/04/10 00:27:42;;;;;;;20.75;10.20;;;7.70;59.10;;;;;;5057172;28;20461;-72
2021/04/10 00:30:10;;;;;;;25.98;10.95;;;7.70;59.20;;;;;;5075719;28;20029;-72
2021/04/10 00:32:36;;;;;;;22.50;10.32;;;7.70;59.30;;;;;;5075009;28;20037;-71
2021/04/10 00:35:03;;;;;;;22.50;10.73;;;7.60;59.70;;;;;;5074927;28;20025;-72
2021/04/10 00:37:29;;;;;;;20.85;10.25;;;7.60;58.70;;;;;;5057202;28;20116;-71
2021/04/10 00:39:55;;;;;;;20.23;10.57;;;7.60;58.10;;;;;;5057249;28;20021;-72
2021/04/10 00:42:21;;;;;;;22.50;11.45;;;7.60;58.50;;;;;;5056876;28;20098;-72
2021/04/10 00:44:47;;;;;;;21.98;10.07;;;7.70;58.60;;;;;;5074762;28;20048;-71
2021/04/10 00:47:13;;;;;;;21.67;10.75;;;7.60;60.10;;;;;;5074477;28;20025;-71
2021/04/10 00:49:39;;;;;;;25.27;11.48;;;7.50;61.20;;;;;;5056793;28;20533;-72
2021/04/10 00:52:07;;;;;;;22.70;11.32;;;7.60;60.00;;;;;;5074596;28;20044;-72
2021/04/10 00:54:35;;;;;;;24.23;11.80;;;7.50;60.10;;;;;;5074682;28;20532;-70
2021/04/10 00:57:01;;;;;;;20.95;11.35;;;7.40;60.30;;;;;;5056668;28;20035;-69
2021/04/10 00:59:27;;;;;;;25.40;12.32;;;7.40;60.40;;;;;;5056737;28;20056;-72
2021/04/10 01:01:53;;;;;;;29.17;13.27;;;7.30;60.70;;;;;;5074264;28;20044;-71
2021/04/10 01:04:19;;;;;;;32.70;15.05;;;7.30;61.80;;;;;;5056450;28;20471;-71
2021/04/10 01:06:45;;;;;;;27.15;13.50;;;7.30;61.00;;;;;;5074376;28;20035;-71
2021/04/10 01:09:11;;;;;;;27.88;13.52;;;7.30;61.10;;;;;;5056409;28;20029;-71
2021/04/10 01:12:07;;;;;;;23.33;12.48;;;7.30;60.90;;;;;;5056321;28;20036;-70
2021/04/10 01:15:06;;;;;;;27.83;14.38;;;7.20;61.70;;;;;;5056682;28;20028;-69
2021/04/10 01:17:39;;;;;;;31.85;14.30;;;7.10;64.90;;;;;;5073709;28;20473;-69
2021/04/10 01:20:40;;;;;;;28.60;14.25;;;7.10;64.50;;;;;;5056402;28;20020;-70
2021/04/10 01:23:28;;;;;;;30.95;14.52;;;7.00;65.70;;;;;;5018166;28;20127;-70
2021/04/10 01:26:00;;;;;;;30.90;14.30;;;6.90;67.20;;;;;;5074188;28;20064;-70
2021/04/10 01:28:46;;;;;;;;;;;6.90;65.70;;;;;;5056752;28;20039;-69
2021/04/10 01:31:16;;;;;;;28.55;14.60;;;6.80;68.20;;;;;;5074078;28;19911;-70
2021/04/10 01:33:50;;;;;;;26.73;13.50;;;6.80;68.80;;;;;;5055873;28;20537;-69
2021/04/10 01:36:24;;;;;;;28.40;14.43;;;6.80;69.60;;;;;;5073999;28;20021;-69
2021/04/10 01:38:52;;;;;;;28.67;14.55;;;6.80;67.30;;;;;;5073956;28;20469;-69
2021/04/10 01:41:21;;;;;;;31.38;14.98;;;6.80;68.10;;;;;;5055925;28;20079;-69
2021/04/10 01:43:48;;;;;;;24.83;13.95;;;6.80;67.50;;;;;;5055824;28;20028;-69
2021/04/10 01:46:16;;;;;;;27.35;15.55;;;6.70;74.10;;;;;;5074001;28;20112;-69
2021/04/10 01:48:45;;;;;;;26.58;15.13;;;6.70;74.20;;;;;;5055757;28;20052;-70
2021/04/10 01:51:11;;;;;;;25.92;14.23;;;6.60;74.40;;;;;;5055787;28;20025;-71
2021/04/10 01:53:39;;;;;;;28.00;14.98;;;6.60;74.30;;;;;;5073696;28;20068;-71
2021/04/10 01:56:06;;;;;;;27.83;13.70;;;6.70;70.30;;;;;;5073786;28;20461;-70
2021/04/10 01:58:34;;;;;;;26.40;14.02;;;6.70;69.70;;;;;;5073652;28;20518;-72
2021/04/10 02:01:02;;;;;;;24.65;12.95;;;6.60;70.80;;;;;;5073725;28;20107;-69
2021/04/10 02:03:29;;;;;;;27.23;13.98;;;6.60;71.10;;;;;;5073231;28;20102;-70
2021/04/10 02:05:56;;;;;;;25.67;13.10;;;6.50;73.20;;;;;;5073615;28;20517;-70
2021/04/10 02:08:25;;;;;;;32.53;15.63;;;6.40;73.60;;;;;;5055622;28;20028;-70
2021/04/10 02:10:53;;;;;;;38.08;15.85;;;6.30;73.20;;;;;;5073613;28;20020;-70
2021/04/10 02:13:20;;;;;;;29.83;15.00;;;6.20;74.10;;;;;;5055552;28;20033;-70
2021/04/10 02:15:50;;;;;;;35.45;15.07;;;6.20;76.40;;;;;;5073267;28;20031;-69
2021/04/10 02:18:18;;;;;;;31.35;15.25;;;6.20;77.50;;;;;;5074045;28;20368;-70
2021/04/10 02:20:45;;;;;;;32.90;16.00;;;6.10;78.10;;;;;;5055477;28;20021;-69
2021/04/10 02:23:13;;;;;;;32.58;16.17;;;6.10;77.10;;;;;;5073443;28;20033;-70
2021/04/10 02:25:40;;;;;;;37.85;16.98;;;6.10;78.40;;;;;;5073608;28;20017;-74
2021/04/10 02:28:06;;;;;;;34.10;15.90;;;6.00;77.70;;;;;;5073330;28;20465;-72
2021/04/10 02:30:32;;;;;;;38.13;16.13;;;6.00;79.20;;;;;;5076832;28;20031;-72
2021/04/10 02:33:04;;;;;;;33.30;15.55;;;5.90;78.20;;;;;;5077325;28;20032;-71
2021/04/10 02:35:36;;;;;;;37.70;16.83;;;5.90;78.30;;;;;;5059414;28;20025;-72
2021/04/10 02:38:04;;;;;;;;;;;5.80;78.80;;;;;;5059606;28;20058;-69
2021/04/10 02:40:34;;;;;;;32.15;16.33;;;5.80;80.00;;;;;;5077279;28;19955;-71
2021/04/10 02:43:03;;;;;;;33.17;14.05;;;5.70;81.20;;;;;;5077459;28;20127;-71
2021/04/10 02:45:30;;;;;;;32.45;16.90;;;5.70;79.60;;;;;;5076766;28;20389;-71
2021/04/10 02:48:00;;;;;;;33.25;16.27;;;5.70;77.50;;;;;;5077011;28;20028;-71
2021/04/10 02:50:27;;;;;;;30.65;15.00;;;5.70;75.20;;;;;;5059106;28;20024;-71
2021/04/10 02:52:56;;;;;;;29.48;16.67;;;5.70;75.70;;;;;;5058604;28;20098;-71
2021/04/10 02:55:35;;;;;;;35.00;17.05;;;5.70;75.80;;;;;;5076838;28;20020;-70
2021/04/10 02:58:12;;;;;;;30.33;16.75;;;5.70;77.00;;;;;;5076945;28;20020;-71
2021/04/10 03:00:42;;;;;;;34.78;16.67;;;5.70;77.40;;;;;;5076838;28;20366;-71
2021/04/10 03:03:11;;;;;;;30.95;16.77;;;5.70;80.80;;;;;;5076392;28;20415;-73
2021/04/10 03:05:40;;;;;;;42.30;18.23;;;5.60;83.10;;;;;;5076700;28;20376;-71
2021/04/10 03:08:08;;;;;;;49.20;25.58;;;5.60;81.80;;;;;;5076368;28;20027;-71
2021/04/10 03:10:34;;;;;;;61.80;30.52;;;5.70;78.50;;;;;;5076770;28;20025;-72
2021/04/10 03:13:03;;;;;;;54.75;27.92;;;5.70;78.80;;;;;;5058541;28;20037;-72
2021/04/10 03:15:29;;;;;;;56.60;26.27;;;5.60;79.20;;;;;;5076806;28;20115;-73
2021/04/10 03:17:55;;;;;;;55.47;24.05;;;5.60;79.40;;;;;;5058469;28;20036;-73
2021/04/10 03:20:22;;;;;;;60.00;26.65;;;5.60;77.90;;;;;;5076564;28;20021;-73
2021/04/10 03:22:49;;;;;;;91.43;36.33;;;5.60;77.90;;;;;;5076407;28;20085;-73
2021/04/10 03:25:17;;;;;;;81.82;33.67;;;5.50;78.10;;;;;;5058370;28;20024;-72
2021/04/10 03:27:43;;;;;;;127.30;49.17;;;5.50;82.20;;;;;;5076375;28;20452;-73
2021/04/10 03:30:12;;;;;;;140.70;51.28;;;5.60;79.40;;;;;;5058387;28;20052;-72
2021/04/10 03:32:39;;;;;;;73.95;33.08;;;5.60;81.30;;;;;;5076115;28;20032;-72
2021/04/10 03:35:07;;;;;;;79.00;34.58;;;5.50;86.40;;;;;;5076156;28;20107;-72
2021/04/10 03:37:33;;;;;;;81.00;37.33;;;5.60;79.30;;;;;;5058005;28;20107;-72
2021/04/10 03:39:59;;;;;;;91.88;38.47;;;5.60;78.00;;;;;;5058164;28;20124;-71
2021/04/10 03:42:52;;;;;;;77.90;34.15;;;5.60;78.10;;;;;;5057484;28;20035;-71
2021/04/10 03:45:22;;;;;;;94.53;41.47;;;5.70;82.00;;;;;;5071993;28;20087;-71
2021/04/10 03:47:50;;;;;;;107.13;46.25;;;5.80;78.10;;;;;;5075942;28;20396;-71
2021/04/10 03:50:17;;;;;;;103.43;43.80;;;5.70;78.20;;;;;;5075936;28;20032;-71
2021/04/10 03:52:42;;;;;;;105.43;42.28;;;5.60;79.10;;;;;;5076054;28;20064;-71
2021/04/10 03:55:10;;;;;;;94.03;39.17;;;5.60;80.40;;;;;;5057774;28;20055;-71
2021/04/10 03:57:36;;;;;;;96.90;40.88;;;5.40;80.20;;;;;;5076265;28;20028;-71
2021/04/10 04:00:04;;;;;;;85.25;35.72;;;5.30;84.60;;;;;;5075557;28;20035;-72
2021/04/10 04:02:30;;;;;;;73.90;29.58;;;5.40;82.20;;;;;;5054040;28;20110;-71
2021/04/10 04:04:56;;;;;;;85.45;34.53;;;5.40;80.20;;;;;;5055634;28;20032;-71
2021/04/10 04:07:22;;;;;;;89.38;37.10;;;5.40;78.30;;;;;;5054250;28;20033;-71
2021/04/10 04:09:48;;;;;;;74.47;34.72;;;5.40;78.70;;;;;;5055423;28;20021;-70
2021/04/10 04:12:14;;;;;;;67.57;31.50;;;5.40;78.40;;;;;;5055307;28;20128;-71
2021/04/10 04:14:41;;;;;;;61.40;29.55;;;5.40;78.70;;;;;;5055550;28;20057;-70
2021/04/10 04:17:07;;;;;;;57.60;29.30;;;5.40;79.00;;;;;;5055548;28;20365;-70
2021/04/10 04:19:34;;;;;;;55.92;27.92;;;5.40;78.60;;;;;;5055374;28;20025;-71
2021/04/10 04:22:03;;;;;;;69.38;35.58;;;5.40;78.90;;;;;;5055431;28;20025;-71
2021/04/10 04:24:29;;;;;;;61.72;31.10;;;5.50;77.50;;;;;;5055228;28;20028;-71
2021/04/10 04:26:55;;;;;;;66.90;31.02;;;5.50;77.80;;;;;;5055271;28;20479;-71
2021/04/10 04:29:22;;;;;;;43.05;22.58;;;5.50;82.90;;;;;;5055132;28;20445;-72
2021/04/10 04:31:48;;;;;;;58.13;26.13;;;5.50;78.90;;;;;;5053824;28;20120;-71
2021/04/10 04:34:14;;;;;;;59.05;27.52;;;5.50;77.60;;;;;;5053755;28;20111;-71
2021/04/10 04:36:40;;;;;;;56.05;26.42;;;5.60;77.60;;;;;;5053758;28;20079;-70
2021/04/10 04:39:06;;;;;;;57.30;26.58;;;5.60;78.90;;;;;;5054995;28;20036;-70
2021/04/10 04:41:32;;;;;;;62.80;25.63;;;5.50;78.70;;;;;;5054959;28;20025;-70
2021/04/10 04:43:59;;;;;;;58.08;26.50;;;5.40;83.30;;;;;;5054932;28;20029;-70
2021/04/10 04:46:25;;;;;;;63.50;27.70;;;5.40;84.90;;;;;;5053528;28;20032;-70
2021/04/10 04:48:50;;;;;;;77.88;30.30;;;5.40;86.80;;;;;;5054787;28;20025;-70
2021/04/10 04:51:20;;;;;;;70.72;29.13;;;5.40;89.10;;;;;;5054811;28;20029;-70
2021/04/10 04:53:46;;;;;;;89.97;26.55;;;5.50;88.00;;;;;;5053703;28;20036;-70
2021/04/10 04:56:12;;;;;;;74.88;32.15;;;5.50;87.40;;;;;;5053375;28;20025;-70
2021/04/10 04:58:38;;;;;;;72.38;31.15;;;5.60;85.90;;;;;;5054657;28;20032;-70
2021/04/10 05:01:04;;;;;;;77.47;31.20;;;5.70;86.70;;;;;;5054524;28;20112;-70
2021/04/10 05:03:30;;;;;;;68.35;32.28;;;5.70;84.60;;;;;;5068416;28;20153;-69
2021/04/10 05:05:56;;;;;;;60.08;28.60;;;5.80;85.50;;;;;;5062402;28;20056;-70
2021/04/10 05:08:22;;;;;;;53.40;25.35;;;5.80;82.60;;;;;;5053716;28;20521;-70
2021/04/10 05:10:48;;;;;;;64.75;26.55;;;5.80;82.40;;;;;;5036566;28;20115;-70
2021/04/10 05:13:13;;;;;;;60.05;25.35;;;5.80;81.70;;;;;;5036417;28;20124;-70
2021/04/10 05:15:41;;;;;;;48.78;21.20;;;5.90;81.60;;;;;;5036253;28;20028;-71
2021/04/10 05:18:07;;;;;;;52.60;19.13;;;6.00;80.40;;;;;;5053932;28;20021;-70
2021/04/10 05:20:33;;;;;;;60.17;25.50;;;6.10;78.40;;;;;;5036345;28;20028;-70
2021/04/10 05:22:59;;;;;;;74.28;31.38;;;6.30;78.70;;;;;;5036304;28;20025;-70
2021/04/10 05:25:25;;;;;;;74.47;32.30;;;6.40;77.80;;;;;;5054095;28;20033;-70
2021/04/10 05:27:53;;;;;;;64.45;28.20;;;6.50;75.90;;;;;;5053784;28;20033;-71
2021/04/10 05:30:20;;;;;;;74.85;29.38;;;6.60;76.10;;;;;;5036143;28;20029;-71
2021/04/10 05:32:46;;;;;;;70.97;29.63;;;6.70;76.20;;;;;;5053911;28;20117;-71
2021/04/10 05:35:12;;;;;;;84.07;33.55;;;6.80;75.20;;;;;;5054246;28;20099;-70
2021/04/10 05:37:38;;;;;;;87.85;37.08;;;6.90;73.90;;;;;;5053938;28;20036;-69
2021/04/10 05:40:05;;;;;;;62.97;29.27;;;7.00;74.10;;;;;;5035986;28;20025;-69
2021/04/10 05:42:31;;;;;;;74.55;30.65;;;7.10;73.40;;;;;;5053983;28;20111;-71
2021/04/10 05:44:57;;;;;;;65.57;31.77;;;7.20;73.20;;;;;;5035988;28;20032;-70
2021/04/10 05:47:23;;;;;;;72.95;30.70;;;7.40;72.10;;;;;;5035893;28;20112;-69
2021/04/10 05:49:50;;;;;;;66.72;33.78;;;7.50;72.80;;;;;;5053818;28;20053;-69
2021/04/10 05:52:16;;;;;;;75.22;33.33;;;7.60;74.00;;;;;;5053666;28;20090;-70
2021/04/10 05:54:42;;;;;;;67.88;36.08;;;7.70;71.90;;;;;;5053416;28;20029;-70
2021/04/10 05:57:08;;;;;;;69.28;34.55;;;7.90;69.70;;;;;;5053874;28;20366;-71
2021/04/10 05:59:34;;;;;;;76.50;37.88;;;8.00;70.60;;;;;;5053473;28;20036;-71
2021/04/10 06:02:05;;;;;;;84.03;36.78;;;8.10;70.50;;;;;;5035425;28;20052;-70
2021/04/10 06:04:32;;;;;;;60.17;29.30;;;8.20;68.40;;;;;;5053497;28;20029;-70
2021/04/10 06:06:58;;;;;;;67.05;30.52;;;8.40;69.30;;;;;;5053605;28;20112;-71
2021/04/10 06:09:24;;;;;;;64.25;29.38;;;8.60;65.30;;;;;;5036137;28;20110;-71
2021/04/10 06:11:51;;;;;;;72.03;30.55;;;;;;;;;;5053796;28;20078;-69
2021/04/10 06:14:18;;;;;;;54.55;26.80;;;9.00;63.00;;;;;;5035814;28;20126;-72
2021/04/10 06:16:44;;;;;;;64.00;28.23;;;9.10;61.00;;;;;;5035591;28;20457;-71
2021/04/10 06:19:10;;;;;;;65.38;30.30;;;9.20;63.30;;;;;;5035827;28;20036;-71
2021/04/10 06:21:36;;;;;;;65.07;27.85;;;9.40;62.70;;;;;;5035602;28;20056;-72
2021/04/10 06:24:02;;;;;;;51.47;26.75;;;9.50;62.90;;;;;;5053431;28;20029;-71
2021/04/10 06:26:27;;;;;;;53.67;26.35;;;9.60;62.40;;;;;;5053309;28;20033;-72
2021/04/10 06:28:53;;;;;;;50.80;24.52;;;9.80;61.70;;;;;;5053428;28;20025;-72
2021/04/10 06:31:19;;;;;;;60.17;25.45;;;9.90;61.60;;;;;;5053385;28;20024;-72
2021/04/10 06:33:45;;;;;;;49.15;23.27;;;9.90;61.30;;;;;;5053062;28;20389;-71
2021/04/10 06:36:11;;;;;;;46.17;23.95;;;10.10;59.40;;;;;;5035504;28;20031;-72
2021/04/10 06:38:37;;;;;;;51.67;24.83;;;10.20;58.90;;;;;;5035193;28;20025;-72
2021/04/10 06:41:04;;;;;;;48.28;23.05;;;10.30;61.00;;;;;;5053290;28;20033;-72
2021/04/10 06:43:30;;;;;;;45.47;22.50;;;10.40;60.20;;;;;;5035307;28;20036;-72
2021/04/10 06:45:58;;;;;;;44.80;22.23;;;10.50;59.10;;;;;;5034785;28;20449;-72
2021/04/10 06:48:27;;;;;;;43.28;21.15;;;10.70;60.30;;;;;;5035387;28;20412;-71
2021/04/10 06:50:53;;;;;;;38.53;19.85;;;10.80;61.80;;;;;;5053136;28;20454;-71
2021/04/10 06:53:20;;;;;;;36.67;19.38;;;11.00;58.90;;;;;;5053351;28;20060;-72
2021/04/10 06:55:52;;;;;;;38.65;20.10;;;11.10;58.30;;;;;;5035275;28;20048;-71
2021/04/10 06:58:36;;;;;;;32.97;19.08;;;11.20;57.40;;;;;;5053244;28;20473;-72
2021/04/10 07:01:03;;;;;;;31.40;16.52;;;11.30;58.00;;;;;;5053090;28;20036;-73
2021/04/10 07:03:29;;;;;;;29.77;15.55;;;11.40;58.00;;;;;;5052687;28;20404;-71
2021/04/10 07:05:56;;;;;;;36.33;16.88;;;11.50;58.70;;;;;;5035128;28;20481;-71
2021/04/10 07:08:22;;;;;;;37.45;14.95;;;11.70;55.50;;;;;;5053140;28;20029;-71
2021/04/10 07:10:50;;;;;;;29.73;14.48;;;11.80;56.40;;;;;;5052963;28;20021;-72
2021/04/10 07:13:16;;;;;;;22.38;11.02;;;11.90;55.50;;;;;;5053068;28;20454;-72
2021/04/10 07:15:42;;;;;;;17.38;10.35;;;12.10;54.60;;;;;;5053173;28;20071;-71
2021/04/10 07:18:08;;;;;;;20.17;11.05;;;12.20;56.10;;;;;;5056468;28;20024;-71
2021/04/10 07:20:36;;;;;;;27.20;10.80;;;12.40;55.20;;;;;;5056448;28;20027;-71
2021/04/10 07:23:06;;;;;;;21.95;9.25;;;12.50;55.10;;;;;;5056448;28;20060;-72
2021/04/10 07:25:34;;;;;;;15.75;8.15;;;12.70;54.10;;;;;;5056605;28;20116;-72
2021/04/10 07:28:24;;;;;;;19.73;9.57;;;12.90;53.80;;;;;;5038585;28;20025;-71
2021/04/10 07:31:03;;;;;;;24.00;11.15;;;13.10;52.90;;;;;;5056435;28;20025;-73
2021/04/10 07:33:32;;;;;;;24.35;12.25;;;13.20;53.60;;;;;;5056554;28;20086;-73
2021/04/10 07:36:01;;;;;;;19.42;10.52;;;13.40;53.40;;;;;;5056340;28;20025;-73
2021/04/10 07:38:38;;;;;;;22.42;10.25;;;13.60;53.50;;;;;;5055858;28;20436;-73
2021/04/10 07:41:13;;;;;;;22.05;10.32;;;13.80;54.80;;;;;;5056123;28;20025;-73
2021/04/10 07:43:40;;;;;;;20.92;10.55;;;13.90;52.00;;;;;;5038212;28;20029;-72
2021/04/10 07:46:18;;;;;;;22.25;10.93;;;14.10;53.00;;;;;;5055701;28;20036;-70
2021/04/10 07:49:01;;;;;;;16.98;8.68;;;;;;;;;;5056097;28;20108;-72
2021/04/10 07:51:28;;;;;;;19.30;9.73;;;;;;;;;;5056196;28;20107;-72
2021/04/10 07:53:56;;;;;;;18.98;9.82;;;14.80;52.90;;;;;;5055773;28;20067;-72
2021/04/10 07:56:22;;;;;;;25.40;9.25;;;14.90;54.20;;;;;;5037782;28;20036;-72
2021/04/10 07:58:48;;;;;;;18.42;8.80;;;15.10;53.90;;;;;;5055452;28;20385;-71
2021/04/10 08:01:15;;;;;;;18.45;9.25;;;15.20;51.10;;;;;;5037640;28;20025;-74
2021/04/10 08:03:50;;;;;;;21.20;9.27;;;15.40;49.70;;;;;;5037770;28;20504;-71
2021/04/10 08:06:20;;;;;;;12.63;7.53;;;15.50;49.70;;;;;;5037751;28;20025;-72
2021/04/10 08:08:57;;;;;;;16.00;8.13;;;15.70;47.60;;;;;;5055608;28;20021;-71
2021/04/10 08:11:42;;;;;;;17.05;7.35;;;15.90;47.70;;;;;;5037594;28;20028;-72
2021/04/10 08:14:13;;;;;;;13.43;7.63;;;16.10;47.30;;;;;;5037504;28;20035;-74
2021/04/10 08:16:42;;;;;;;12.77;7.50;;;16.20;46.00;;;;;;5055550;28;20090;-72
2021/04/10 08:19:08;;;;;;;13.02;7.35;;;16.30;46.40;;;;;;5055429;28;20025;-71
2021/04/10 08:21:34;;;;;;;12.25;6.65;;;16.50;47.10;;;;;;5055350;28;20021;-70
2021/04/10 08:24:02;;;;;;;12.02;6.82;;;16.70;46.00;;;;;;5054881;28;20039;-71
2021/04/10 08:26:28;;;;;;;11.20;5.43;;;16.80;47.60;;;;;;5037280;28;20036;-71
2021/04/10 08:28:55;;;;;;;7.82;5.53;;;16.80;43.10;;;;;;5037246;28;20025;-70
2021/04/10 08:31:21;;;;;;;9.18;5.75;;;16.80;42.00;;;;;;5037247;28;20074;-71
2021/04/10 08:33:47;;;;;;;10.52;6.15;;;17.00;42.80;;;;;;5055030;28;20033;-71
2021/04/10 08:36:14;;;;;;;14.60;6.30;;;17.10;42.40;;;;;;5037120;28;20522;-71
2021/04/10 08:38:41;;;;;;;9.90;5.88;;;17.30;42.80;;;;;;5054944;28;20032;-72
2021/04/10 08:41:09;;;;;;;12.60;3.58;;;17.40;42.60;;;;;;5054944;28;20029;-71
2021/04/10 08:43:46;;;;;;;8.65;3.22;;;17.60;37.70;;;;;;5055151;28;20033;-72
2021/04/10 08:46:17;;;;;;;10.63;5.53;;;17.80;40.70;;;;;;5055051;28;20035;-71
2021/04/10 08:48:44;;;;;;;12.73;5.30;;;17.80;39.30;;;;;;5054906;28;20025;-71
2021/04/10 08:51:14;;;;;;;5.82;2.78;;;18.00;40.90;;;;;;5036812;28;20033;-70
2021/04/10 08:53:45;;;;;;;5.47;3.00;;;18.10;38.00;;;;;;5036819;28;20039;-71
2021/04/10 08:56:12;;;;;;;5.90;2.67;;;18.30;39.90;;;;;;5037218;28;20025;-72
2021/04/10 08:58:42;;;;;;;3.25;2.58;;;18.20;37.90;;;;;;5036619;28;20051;-71
2021/04/10 09:01:25;;;;;;;5.35;2.33;;;18.50;38.50;;;;;;5036307;28;20029;-71
2021/04/10 09:03:53;;;;;;;3.00;2.35;;;18.60;37.20;;;;;;5054070;28;20033;-72
2021/04/10 09:06:34;;;;;;;6.00;2.10;;;18.90;35.00;;;;;;5054436;28;20372;-70
2021/04/10 09:09:14;;;;;;;6.97;2.75;;;19.10;36.50;;;;;;5036801;28;20029;-71
2021/04/10 09:11:49;;;;;;;9.20;3.33;;;19.20;35.90;;;;;;5054320;28;20040;-71
2021/04/10 09:14:42;;;;;;;3.10;2.40;;;19.40;35.90;;;;;;5054316;28;20107;-71
2021/04/10 09:17:08;;;;;;;5.28;2.60;;;19.70;36.80;;;;;;5054410;28;20114;-71
2021/04/10 09:19:36;;;;;;;6.20;2.50;;;19.80;34.90;;;;;;5036344;28;20079;-71
2021/04/10 09:22:02;;;;;;;31.60;4.15;;;19.70;35.50;;;;;;5036002;28;20087;-71
2021/04/10 09:24:45;;;;;;;4.97;2.42;;;20.10;34.70;;;;;;5053898;28;20059;-71
2021/04/10 09:27:22;;;;;;;5.40;2.63;;;20.20;34.90;;;;;;5054182;28;20083;-70
2021/04/10 09:30:00;;;;;;;8.38;2.63;;;20.40;34.70;;;;;;5036161;28;20029;-70
2021/04/10 09:32:33;;;;;;;6.72;1.90;;;20.60;37.50;;;;;;5053893;28;20039;-73
2021/04/10 09:35:08;;;;;;;3.47;1.98;;;20.30;34.90;;;;;;5054067;28;20047;-74
2021/04/10 09:37:34;;;;;;;5.03;2.17;;;20.20;35.20;;;;;;5053922;28;20033;-72
2021/04/10 09:40:06;;;;;;;6.82;2.42;;;20.50;34.40;;;;;;5053436;28;20029;-73
2021/04/10 09:42:35;;;;;;;;;;;20.90;35.60;;;;;;5054355;28;20044;-70
2021/04/10 09:45:11;;;;;;;4.32;2.17;;;21.30;35.30;;;;;;5053832;28;19913;-72
2021/04/10 09:48:01;;;;;;;6.18;2.25;;;21.60;33.60;;;;;;5053525;28;20036;-72
2021/04/10 09:50:31;;;;;;;4.95;1.83;;;21.60;35.40;;;;;;5035936;28;20017;-74
2021/04/10 09:53:06;;;;;;;3.40;1.65;;;21.30;34.80;;;;;;5056922;28;20029;-73
2021/04/10 09:55:37;;;;;;;7.25;2.05;;;21.40;32.70;;;;;;5053998;28;20036;-72
2021/04/10 09:58:07;;;;;;;7.43;1.67;;;21.40;31.90;;;;;;5072510;28;20074;-72
2021/04/10 10:00:36;;;;;;;8.27;1.85;;;21.20;34.30;;;;;;5072621;28;20029;-73
2021/04/10 10:03:04;;;;;;;3.42;1.92;;;20.90;33.40;;;;;;5052021;28;20045;-70
2021/04/10 10:05:38;;;;;;;4.40;1.58;;;20.90;33.90;;;;;;5036054;28;20055;-72
2021/04/10 10:08:06;;;;;;;7.38;1.67;;;20.80;34.50;;;;;;5053682;28;20469;-72
2021/04/10 10:10:34;;;;;;;2.75;1.65;;;20.90;33.10;;;;;;5053536;28;20535;-72
2021/04/10 10:13:19;;;;;;;4.63;1.85;;;21.40;33.70;;;;;;5053476;28;20033;-73
2021/04/10 10:15:47;;;;;;;3.10;1.40;;;21.90;32.30;;;;;;5053796;28;20025;-73
2021/04/10 10:18:26;;;;;;;3.60;1.90;;;21.80;31.30;;;;;;5035511;28;20056;-71
2021/04/10 10:21:00;;;;;;;5.03;1.65;;;22.40;32.60;;;;;;5035382;28;20033;-72
2021/04/10 10:23:28;;;;;;;5.10;2.00;;;23.00;33.10;;;;;;5035361;28;20083;-71
2021/04/10 10:26:01;;;;;;;2.33;1.52;;;23.60;30.30;;;;;;5035656;28;20098;-72
2021/04/10 10:28:27;;;;;;;5.32;1.40;;;24.00;29.90;;;;;;5035436;28;20151;-71
2021/04/10 10:30:53;;;;;;;2.38;1.40;;;23.70;30.00;;;;;;5035395;28;20029;-72
2021/04/10 10:33:21;;;;;;;5.78;1.73;;;24.60;30.90;;;;;;5035729;28;20039;-71
2021/04/10 10:35:53;;;;;;;2.63;1.58;;;;;;;;;;5053050;28;20091;-71
2021/04/10 10:38:19;;;;;;;5.40;2.05;;;25.40;27.40;;;;;;5035353;28;20056;-71
2021/04/10 10:40:49;;;;;;;5.25;1.90;;;26.60;29.10;;;;;;5035337;28;20053;-72
2021/04/10 10:43:16;;;;;;;2.72;1.60;;;26.00;26.60;;;;;;5053282;28;20083;-70
2021/04/10 10:45:53;;;;;;;5.38;1.90;;;25.90;27.00;;;;;;5053245;28;20052;-71
2021/04/10 10:48:31;;;;;;;3.80;1.77;;;26.80;27.60;;;;;;5035372;28;20029;-69
2021/04/10 10:51:00;;;;;;;3.17;1.40;;;26.30;28.90;;;;;;5035927;28;20083;-72
2021/04/10 10:53:31;;;;;;;3.33;1.42;;;25.70;28.00;;;;;;5056936;28;20069;-73
2021/04/10 10:56:05;;;;;;;6.93;2.08;;;25.20;28.60;;;;;;5056965;28;20056;-71
2021/04/10 10:58:37;;;;;;;4.22;1.58;;;25.90;30.10;;;;;;5056913;28;20491;-70
2021/04/10 11:01:14;;;;;;;4.50;1.63;;;27.40;27.10;;;;;;5056495;28;20424;-73
2021/04/10 11:03:49;;;;;;;2.88;1.55;;;27.60;27.80;;;;;;5056890;28;20040;-70
2021/04/10 11:06:16;;;;;;;2.85;1.25;;;28.30;26.60;;;;;;5056753;28;20083;-70
2021/04/10 11:08:43;;;;;;;5.22;1.98;;;;;;;;;;5056739;28;20024;-71
2021/04/10 11:11:10;;;;;;;2.28;1.35;;;28.40;26.50;;;;;;5056640;28;20017;-72
2021/04/10 11:13:36;;;;;;;2.17;1.48;;;28.80;26.50;;;;;;5056251;28;20427;-71
2021/04/10 11:16:04;;;;;;;4.40;1.63;;;28.80;25.00;;;;;;5056460;28;20029;-71
2021/04/10 11:18:32;;;;;;;5.40;1.70;;;28.90;25.20;;;;;;5038564;28;20037;-72
2021/04/10 11:21:26;;;;;;;4.38;1.55;;;28.10;25.50;;;;;;5056475;28;20071;-72
2021/04/10 11:23:59;;;;;;;4.78;1.67;;;;;;;;;;5038415;28;20377;-72
2021/04/10 11:26:45;;;;;;;3.80;1.42;;;;;;;;;;5038488;28;20021;-72
2021/04/10 11:29:22;;;;;;;3.47;1.50;;;;;;;;;;5056380;28;20025;-71
2021/04/10 11:32:16;;;;;;;4.00;1.40;;;28.00;25.70;;;;;;5056229;28;20013;-71
2021/04/10 11:34:46;;;;;;;2.47;1.58;;;27.30;27.00;;;;;;5056260;28;20120;-72
2021/04/10 11:37:14;;;;;;;2.67;1.70;;;26.30;27.00;;;;;;5056102;28;20028;-71
2021/04/10 11:40:00;;;;;;;3.78;1.55;;;25.00;27.20;;;;;;5056312;28;20031;-70
2021/04/10 11:42:33;;;;;;;3.28;1.70;;;23.60;28.30;;;;;;5055822;28;20393;-74
2021/04/10 11:45:04;;;;;;;5.95;2.65;;;23.40;28.90;;;;;;5056009;28;20025;-73
2021/04/10 11:47:32;;;;;;;4.50;1.88;;;23.20;29.60;;;;;;5037927;28;20485;-73
2021/04/10 11:50:14;;;;;;;4.45;1.50;;;22.70;29.40;;;;;;5055510;28;20146;-72
2021/04/10 11:52:41;;;;;;;;;;;22.00;31.10;;;;;;5056204;28;20120;-69
2021/04/10 11:55:09;;;;;;;4.20;1.90;;;;;;;;;;5055868;28;19905;-71
2021/04/10 11:57:38;;;;;;;3.78;1.42;;;;;;;;;;5037681;28;20052;-72
2021/04/10 12:00:22;;;;;;;4.38;1.70;;;21.40;31.70;;;;;;5038003;28;20056;-71
2021/04/10 12:02:48;;;;;;;4.57;1.70;;;21.50;32.20;;;;;;5054733;28;20052;-71
2021/04/10 12:05:40;;;;;;;5.07;1.77;;;21.50;32.80;;;;;;5037461;28;20031;-71
2021/04/10 12:08:08;;;;;;;3.78;2.00;;;21.90;31.10;;;;;;5044197;28;20072;-71
2021/04/10 12:10:35;;;;;;;7.63;1.85;;;22.90;31.10;;;;;;5037577;28;20035;-72
2021/04/10 12:13:01;;;;;;;3.17;2.03;;;23.80;29.40;;;;;;5055383;28;20083;-70
2021/04/10 12:15:31;;;;;;;7.88;2.53;;;25.00;28.50;;;;;;5055543;28;20029;-71
2021/04/10 12:17:57;;;;;;;9.07;3.67;;;25.00;28.00;;;;;;5037588;28;20438;-73
2021/04/10 12:20:24;;;;;;;8.13;2.33;;;;;;;;;;5055421;28;20025;-72
2021/04/10 12:22:50;;;;;;;4.03;1.90;;;;;;;;;;5037250;28;20052;-72
2021/04/10 12:25:16;;;;;;;3.20;1.95;;;;;;;;;;5034489;28;20032;-72
2021/04/10 12:27:43;;;;;;;7.35;2.30;;;;;;;;;;5037022;28;20116;-71
2021/04/10 12:30:09;;;;;;;5.78;2.03;;;;;;;;;;5055315;28;20108;-72
2021/04/10 12:32:36;;;;;;;2.42;1.58;;;;;;;;;;5054880;28;20068;-72
2021/04/10 12:35:05;;;;;;;4.43;1.67;;;;;;;;;;5055041;28;20469;-72
2021/04/10 12:37:31;;;;;;;4.47;2.00;;;;;;;;;;5054484;28;20107;-74
2021/04/10 12:39:57;;;;;;;6.63;2.03;;;;;;;;;;5054712;28;20339;-72
2021/04/10 12:42:23;;;;;;;10.93;2.42;;;;;;;;;;5054484;28;20013;-72
2021/04/10 12:44:50;;;;;;;3.38;1.80;;;;;;;;;;5054850;28;20375;-72
2021/04/10 12:47:20;;;;;;;4.45;1.52;;;26.60;25.70;;;;;;5037008;28;20059;-72
2021/04/10 12:49:47;;;;;;;3.15;1.40;;;26.10;26.00;;;;;;5054806;28;20113;-71
2021/04/10 12:52:13;;;;;;;6.32;2.20;;;26.50;26.60;;;;;;5054658;28;20025;-73
2021/04/10 12:54:39;;;;;;;2.35;1.67;;;26.70;27.10;;;;;;5054652;28;20028;-71
2021/04/10 12:57:06;;;;;;;2.80;1.73;;;26.70;26.40;;;;;;5054761;28;20385;-73
2021/04/10 12:59:33;;;;;;;3.00;1.80;;;27.40;26.70;;;;;;5054493;28;20082;-71